createdAt,value
2023-03-20T00:02:34.583Z,101047.81
2023-03-20T00:07:38.065Z,101044.78
2023-03-20T00:12:41.450Z,101047.84
2023-03-20T00:17:50.753Z,101042.72
2023-03-20T00:22:54.709Z,101044.28
2023-03-20T00:27:59.889Z,101035.00
2023-03-20T00:33:07.060Z,101027.28
2023-03-20T00:38:15.158Z,101029.22
2023-03-20T01:29:32.059Z,101040.75
2023-03-20T02:44:15.837Z,100985.56
2023-03-20T02:49:37.122Z,100992.16
2023-03-20T02:54:50.571Z,100988.34
2023-03-20T03:00:05.345Z,100977.97
2023-03-20T03:05:14.679Z,100971.81
2023-03-20T03:10:22.824Z,100968.88
2023-03-20T03:15:35.215Z,100966.72
2023-03-20T04:16:25.410Z,100956.38
2023-03-20T04:21:36.378Z,100967.88
2023-03-20T05:22:34.157Z,100984.66
2023-03-20T05:27:39.929Z,100981.94
2023-03-20T05:32:45.186Z,100977.22
2023-03-20T05:37:53.371Z,100982.28
2023-03-20T05:43:00.647Z,100986.84
2023-03-20T05:48:05.859Z,100989.31
2023-03-20T05:53:12.011Z,100999.25
2023-03-20T05:58:20.259Z,101004.84
2023-03-20T06:03:25.664Z,101001.06
2023-03-20T06:08:32.609Z,101015.06
2023-03-20T06:13:43.058Z,101017.66
2023-03-20T06:18:49.778Z,101010.19
2023-03-20T06:23:56.996Z,101007.09
2023-03-20T06:29:12.305Z,101010.81
2023-03-20T06:34:20.262Z,101004.63
2023-03-20T06:39:30.928Z,100999.91
2023-03-20T06:44:37.523Z,100999.69
2023-03-20T06:49:59.696Z,101003.69
2023-03-20T06:55:06.872Z,100997.34
2023-03-20T07:00:16.838Z,101001.47
2023-03-20T07:05:31.313Z,100995.09
2023-03-20T07:10:38.257Z,100992.25
2023-03-20T07:16:02.993Z,101004.50
2023-03-20T07:21:38.826Z,101009.81
2023-03-20T07:26:42.990Z,101010.84
2023-03-20T07:31:53.159Z,101010.09
2023-03-20T07:36:58.007Z,101016.56
2023-03-20T07:42:19.728Z,101007.59
2023-03-20T07:47:48.766Z,101009.34
2023-03-20T07:52:55.421Z,101018.31
2023-03-20T07:58:22.895Z,101012.25
2023-03-20T08:03:33.693Z,101020.94
2023-03-20T08:08:45.716Z,101017.09
2023-03-20T11:04:05.242Z,101014.13
2023-03-20T11:09:30.383Z,101008.69
2023-03-20T13:20:22.219Z,100848.47
2023-03-20T13:26:00.702Z,100840.19
2023-03-20T13:31:21.023Z,100839.94
2023-03-20T13:36:41.567Z,100820.44
2023-03-20T13:42:42.137Z,100827.06
2023-03-20T14:49:16.864Z,100752.56
2023-03-20T14:54:30.497Z,100744.34
2023-03-20T14:59:36.152Z,100744.97
2023-03-20T15:04:43.383Z,100738.03
2023-03-20T15:09:53.127Z,100736.19
2023-03-20T15:15:44.807Z,100722.19
2023-03-20T15:20:24.103Z,100724.28
2023-03-20T15:25:46.922Z,100712.94
2023-03-20T15:30:54.155Z,100703.25
2023-03-20T15:35:59.288Z,100704.31
2023-03-20T15:41:14.864Z,100701.53
2023-03-20T15:46:22.222Z,100703.38
2023-03-20T15:51:28.945Z,100698.31
2023-03-20T15:56:49.837Z,100683.59
2023-03-20T16:01:58.586Z,100692.72
2023-03-20T16:07:04.239Z,100696.56
2023-03-20T16:12:19.926Z,100692.06
2023-03-20T16:17:29.084Z,100702.34
2023-03-20T16:22:35.063Z,100689.50
2023-03-20T16:27:52.824Z,100693.41
2023-03-20T16:33:01.808Z,100689.00
2023-03-20T16:38:21.085Z,100695.66
2023-03-20T16:43:34.000Z,100689.66
2023-03-20T16:48:40.194Z,100691.38
2023-03-20T16:53:51.419Z,100687.09
2023-03-20T16:58:59.512Z,100670.97
2023-03-20T17:04:21.349Z,100679.16
2023-03-20T17:09:30.720Z,100690.56
2023-03-20T17:14:35.441Z,100702.66
2023-03-20T17:19:45.675Z,100708.00
2023-03-20T17:24:52.999Z,100711.75
2023-03-20T17:29:57.616Z,100709.53
2023-03-20T17:35:03.456Z,100715.31
2023-03-20T17:40:08.833Z,100721.09
2023-03-20T17:45:17.976Z,100724.47
2023-03-20T17:50:29.806Z,100750.25
2023-03-20T17:55:46.129Z,100745.13
2023-03-20T18:00:58.081Z,100748.56
2023-03-20T18:06:07.329Z,100750.97
2023-03-20T18:11:10.742Z,100755.56
2023-03-20T18:16:19.894Z,100748.00
2023-03-20T18:21:24.413Z,100750.84
2023-03-20T18:26:28.714Z,100744.09
2023-03-20T18:31:33.449Z,100753.91
2023-03-20T18:36:43.760Z,100764.13
2023-03-20T18:41:48.543Z,100783.34
2023-03-20T18:46:54.341Z,100775.47
2023-03-20T18:52:03.307Z,100790.75
2023-03-20T18:57:16.733Z,100784.75
2023-03-20T19:02:30.794Z,100794.88
2023-03-20T19:07:35.459Z,100797.28
2023-03-20T19:12:41.061Z,100802.81
2023-03-20T19:17:47.213Z,100797.72
2023-03-20T20:02:11.813Z,100815.75
2023-03-20T20:07:56.208Z,100817.94
2023-03-20T20:12:40.524Z,100822.50
2023-03-20T20:17:48.240Z,100828.59
2023-03-20T20:22:56.416Z,100839.09
2023-03-20T20:28:17.306Z,100850.69
2023-03-20T20:33:36.975Z,100861.59
2023-03-20T20:38:50.719Z,100861.31
2023-03-20T20:44:15.198Z,100869.34
2023-03-20T20:49:35.868Z,100874.09
2023-03-20T20:54:43.185Z,100881.16
2023-03-20T20:59:46.362Z,100891.94
2023-03-20T21:04:52.784Z,100898.94
2023-03-20T21:09:55.943Z,100909.53
2023-03-20T21:15:09.739Z,100909.19
2023-03-20T21:20:22.512Z,100920.41
2023-03-20T21:25:39.188Z,100913.78
2023-03-20T21:31:12.546Z,100921.59
2023-03-20T21:36:53.954Z,100931.13
2023-03-20T23:41:57.337Z,100926.09
2023-03-20T23:46:52.559Z,100924.44
2023-03-20T23:51:55.725Z,100927.38
2023-03-20T23:57:09.154Z,100921.19
